Terminal Aerodrome Forecast
Issued by NWS Greer, SC

Home | Current Version | Previous Version | Text Only | Print | Product List | Glossary On
Versions: 1 2 3 4 5 6 7 8 9 10 11 12 13 14
000
FTUS42 KGSP 262333
TAFAVL
TAF
KAVL 262333Z 2700/2724 VRB05KT P6SM SCT100
     FM270500 00000KT P6SM BKN090
     FM270900 00000KT 4SM BR FEW005 BKN090
     FM271200 VRB03KT P6SM SCT080
     FM271600 16005KT P6SM BKN040 PROB30 2718/2724 4SM TSRA
      BKN030CB=

USA.gov is the U.S. government's official web portal to all federal, state and local government web resources and services.